createdAt,value
2022-11-12T00:01:47.573Z,99.12
2022-11-12T00:03:48.853Z,99.12
2022-11-12T00:05:50.865Z,99.1
2022-11-12T00:07:52.611Z,99.1
2022-11-12T00:11:55.231Z,99.12
2022-11-12T00:13:57.170Z,99.13
2022-11-12T00:15:58.380Z,99.15
2022-11-12T00:17:59.567Z,99.11
2022-11-12T00:22:02.938Z,99.1
2022-11-12T00:24:04.386Z,99.09
2022-11-12T00:26:05.654Z,99.08
2022-11-12T00:28:07.593Z,99.08
2022-11-12T00:30:08.764Z,99.08
2022-11-12T00:32:10.340Z,99.08
2022-11-12T00:34:12.263Z,99.05
2022-11-12T00:36:13.587Z,99.04
2022-11-12T00:38:14.962Z,99.04
2022-11-12T00:40:16.456Z,99.03
2022-11-12T00:42:17.563Z,99.04
2022-11-12T00:44:18.878Z,99.04
2022-11-12T00:46:20.098Z,99.06
2022-11-12T00:48:21.929Z,99.09
2022-11-12T00:50:23.486Z,99.11
2022-11-12T00:54:26.605Z,99.12
2022-11-12T00:56:31.741Z,99.13
2022-11-12T00:58:29.594Z,99.15
2022-11-12T01:00:31.568Z,99.17
2022-11-12T01:04:34.856Z,99.19
2022-11-12T01:06:36.826Z,99.18
2022-11-12T01:08:38.113Z,99.19
2022-11-12T01:10:39.187Z,99.21
2022-11-12T01:12:41.107Z,99.19
2022-11-12T01:14:42.721Z,99.22
2022-11-12T01:16:43.854Z,99.21
2022-11-12T01:18:45.165Z,99.22
2022-11-12T01:20:46.721Z,99.23
2022-11-12T01:22:47.801Z,99.23
2022-11-12T01:24:49.366Z,99.24
2022-11-12T01:26:51.240Z,99.24
2022-11-12T01:28:53.044Z,99.25
2022-11-12T01:30:54.286Z,99.25
2022-11-12T01:32:56.024Z,99.24
2022-11-12T01:34:57.701Z,99.24
2022-11-12T01:36:59.429Z,99.23
2022-11-12T01:39:00.844Z,99.24
2022-11-12T01:41:02.563Z,99.24
2022-11-12T01:43:04.205Z,99.25
2022-11-12T01:47:06.434Z,99.21
2022-11-12T01:49:08.123Z,99.22
2022-11-12T01:51:09.882Z,99.22
2022-11-12T01:53:11.836Z,99.21
2022-11-12T01:55:12.858Z,99.2
2022-11-12T01:57:14.022Z,99.22
2022-11-12T01:59:15.118Z,99.2
2022-11-12T02:01:16.192Z,99.24
2022-11-12T02:03:18.085Z,99.24
2022-11-12T02:05:19.965Z,99.25
2022-11-12T02:07:21.515Z,99.25
2022-11-12T02:09:22.533Z,99.26
2022-11-12T02:11:24.364Z,99.25
2022-11-12T02:13:26.340Z,99.24
2022-11-12T02:15:27.398Z,99.25
2022-11-12T02:17:29.022Z,99.25
2022-11-12T02:19:31.001Z,99.25
2022-11-12T02:21:32.843Z,99.25
2022-11-12T02:23:34.331Z,99.24
2022-11-12T02:25:35.567Z,99.24
2022-11-12T02:29:39.300Z,99.23
2022-11-12T02:31:40.675Z,99.22
2022-11-12T02:33:42.188Z,99.24
2022-11-12T02:35:43.550Z,99.22
2022-11-12T02:37:44.721Z,99.21
2022-11-12T02:39:46.130Z,99.2
2022-11-12T02:41:47.514Z,99.2
2022-11-12T02:43:49.257Z,99.18
2022-11-12T02:45:51.144Z,99.19
2022-11-12T02:47:53.013Z,99.19
2022-11-12T02:49:54.634Z,99.19
2022-11-12T02:51:56.563Z,99.21
2022-11-12T02:53:57.688Z,99.19
2022-11-12T02:55:58.823Z,99.22
2022-11-12T02:58:00.138Z,99.22
2022-11-12T03:00:01.569Z,99.23
2022-11-12T03:02:46.947Z,99.22
2022-11-12T03:06:50.055Z,99.22
2022-11-12T03:08:51.366Z,99.24
2022-11-12T03:12:53.516Z,99.22
2022-11-12T03:14:55.152Z,99.23
2022-11-12T03:16:56.863Z,99.24
2022-11-12T03:18:58.757Z,99.25
2022-11-12T03:20:59.886Z,99.26
2022-11-12T03:23:01.427Z,99.25
2022-11-12T03:25:02.738Z,99.24
2022-11-12T03:27:04.577Z,99.27
2022-11-12T03:29:05.771Z,99.27
2022-11-12T03:31:06.779Z,99.27
2022-11-12T03:33:08.686Z,99.28
2022-11-12T03:35:10.653Z,99.28
2022-11-12T03:37:12.593Z,99.29
2022-11-12T03:39:14.502Z,99.3
2022-11-12T03:41:16.326Z,99.32
2022-11-12T03:43:18.268Z,99.31
2022-11-12T03:45:19.961Z,99.32
2022-11-12T03:49:22.945Z,99.31
2022-11-12T03:51:24.541Z,99.29
2022-11-12T03:53:26.147Z,99.31
2022-11-12T03:55:27.218Z,99.28
2022-11-12T03:59:30.638Z,99.31
2022-11-12T04:01:31.925Z,99.32
2022-11-12T04:03:33.342Z,99.34
2022-11-12T04:05:34.993Z,99.33
2022-11-12T04:07:36.542Z,99.33
2022-11-12T04:09:38.581Z,99.3
2022-11-12T04:11:40.433Z,99.3
2022-11-12T04:13:42.212Z,99.3
2022-11-12T04:15:43.243Z,99.31
2022-11-12T04:17:45.108Z,99.31
2022-11-12T04:19:46.949Z,99.3
2022-11-12T04:21:48.026Z,99.34
2022-11-12T04:23:49.351Z,99.31
2022-11-12T04:25:50.468Z,99.31
2022-11-12T04:27:52.468Z,99.34
2022-11-12T04:31:56.214Z,99.34
2022-11-12T04:33:57.317Z,99.34
2022-11-12T04:38:00.525Z,99.33
2022-11-12T04:40:02.217Z,99.35
2022-11-12T04:42:04.238Z,99.34
2022-11-12T04:44:05.303Z,99.34
2022-11-12T04:46:06.766Z,99.35
2022-11-12T04:48:08.756Z,99.33
2022-11-12T04:50:10.001Z,99.34
2022-11-12T04:52:11.121Z,99.34
2022-11-12T04:54:13.120Z,99.35
2022-11-12T04:56:14.372Z,99.36
2022-11-12T04:58:15.517Z,99.35
2022-11-12T05:00:17.356Z,99.36
2022-11-12T05:02:18.435Z,99.37
2022-11-12T05:04:19.938Z,99.37
2022-11-12T05:06:21.344Z,99.37
2022-11-12T05:08:22.451Z,99.37
2022-11-12T05:10:23.553Z,99.36
2022-11-12T05:12:24.678Z,99.38
2022-11-12T05:14:26.131Z,99.37
2022-11-12T05:16:27.978Z,99.38
2022-11-12T05:20:31.685Z,99.4
2022-11-12T05:22:44.230Z,99.39
2022-11-12T05:24:41.790Z,99.41
2022-11-12T05:26:37.027Z,99.41
2022-11-12T05:30:39.631Z,99.4
2022-11-12T05:32:41.382Z,99.4
2022-11-12T05:34:42.620Z,99.4
2022-11-12T05:36:43.670Z,99.41
2022-11-12T05:38:45.086Z,99.39
2022-11-12T05:40:46.741Z,99.4
2022-11-12T05:42:48.322Z,99.4
2022-11-12T05:44:49.925Z,99.42
2022-11-12T05:46:51.537Z,99.4
2022-11-12T05:48:53.340Z,99.4
2022-11-12T05:52:56.769Z,99.4
2022-11-12T05:54:58.155Z,99.4
2022-11-12T05:56:59.552Z,99.41
2022-11-12T05:59:01.164Z,99.4
2022-11-12T06:03:03.962Z,99.41
2022-11-12T06:05:05.253Z,99.42
2022-11-12T06:07:07.087Z,99.42
2022-11-12T06:09:08.323Z,99.43
2022-11-12T06:13:11.862Z,99.45
2022-11-12T06:15:13.739Z,99.44
2022-11-12T06:17:14.833Z,99.44
2022-11-12T06:19:16.490Z,99.45
2022-11-12T06:21:18.242Z,99.45
2022-11-12T06:23:19.628Z,99.44
2022-11-12T06:25:20.899Z,99.45
2022-11-12T06:27:22.136Z,99.45
2022-11-12T06:29:23.437Z,99.44
2022-11-12T06:31:25.037Z,99.44
2022-11-12T06:33:26.984Z,99.46
2022-11-12T06:35:28.926Z,99.46
2022-11-12T06:37:30.380Z,99.46
2022-11-12T06:39:31.877Z,99.44
2022-11-12T06:41:33.368Z,99.45
2022-11-12T06:43:35.217Z,99.43
2022-11-12T06:45:36.224Z,99.47
2022-11-12T06:47:37.910Z,99.45
2022-11-12T06:49:39.112Z,99.46
2022-11-12T06:51:40.831Z,99.45
2022-11-12T06:55:43.932Z,99.46
2022-11-12T06:57:45.533Z,99.44
2022-11-12T06:59:47.489Z,99.45
2022-11-12T07:01:48.573Z,99.43
2022-11-12T07:03:49.949Z,99.45
2022-11-12T07:05:51.481Z,99.44
2022-11-12T07:07:53.228Z,99.46
2022-11-12T07:09:54.699Z,99.47
2022-11-12T07:11:56.636Z,99.45
2022-11-12T07:13:58.317Z,99.42
2022-11-12T07:15:59.494Z,99.44
2022-11-12T07:18:01.385Z,99.41
2022-11-12T07:20:04.050Z,99.43
2022-11-12T07:22:05.010Z,99.41
2022-11-12T07:24:06.176Z,99.41
2022-11-12T07:26:07.430Z,99.43
2022-11-12T07:28:09.216Z,99.42
2022-11-12T07:30:10.912Z,99.44
2022-11-12T07:32:12.213Z,99.44
2022-11-12T07:34:14.029Z,99.42
2022-11-12T07:38:17.208Z,99.42
2022-11-12T07:40:18.857Z,99.46
2022-11-12T07:42:20.665Z,99.45
2022-11-12T07:44:22.502Z,99.46
2022-11-12T07:46:23.814Z,99.44
2022-11-12T07:48:25.943Z,99.48
2022-11-12T07:50:27.243Z,99.48
2022-11-12T07:52:28.233Z,99.47
2022-11-12T07:54:30.114Z,99.49
2022-11-12T07:56:31.558Z,99.46
2022-11-12T07:58:32.839Z,99.48
2022-11-12T08:00:34.743Z,99.47
2022-11-12T08:02:35.802Z,99.48
2022-11-12T08:04:37.559Z,99.48
2022-11-12T08:06:39.499Z,99.47
2022-11-12T08:08:40.738Z,99.45
2022-11-12T08:10:42.662Z,99.45
2022-11-12T08:12:44.186Z,99.46
2022-11-12T08:14:45.838Z,99.47
2022-11-12T08:16:47.305Z,99.47
2022-11-12T08:20:50.184Z,99.47
2022-11-12T08:22:51.305Z,99.46
2022-11-12T08:24:52.550Z,99.47
2022-11-12T08:26:54.514Z,99.47
2022-11-12T08:28:55.582Z,99.44
2022-11-12T08:30:57.226Z,99.47
2022-11-12T08:32:58.697Z,99.44
2022-11-12T08:35:00.162Z,99.45
2022-11-12T08:37:01.954Z,99.45
2022-11-12T08:39:03.404Z,99.44
2022-11-12T08:41:04.982Z,99.45
2022-11-12T08:43:06.287Z,99.45
2022-11-12T08:45:07.825Z,99.43
2022-11-12T08:47:09.500Z,99.43
2022-11-12T08:49:10.464Z,99.42
2022-11-12T08:53:13.955Z,99.41
2022-11-12T08:55:15.415Z,99.41
2022-11-12T08:57:17.192Z,99.4
2022-11-12T08:59:19.078Z,99.39
2022-11-12T09:03:22.548Z,99.39
2022-11-12T09:05:24.417Z,99.39
2022-11-12T09:07:48.621Z,99.36
2022-11-12T09:09:27.432Z,99.4
2022-11-12T09:11:29.244Z,99.4
2022-11-12T09:13:30.786Z,99.4
2022-11-12T09:15:37.749Z,99.4
2022-11-12T09:17:33.556Z,99.4
2022-11-12T09:19:37.514Z,99.37
2022-11-12T09:21:36.557Z,99.33
2022-11-12T09:23:37.875Z,99.31
2022-11-12T09:25:39.533Z,99.34
2022-11-12T09:27:45.781Z,99.31
2022-11-12T09:29:42.626Z,99.32
2022-11-12T09:31:43.935Z,99.31
2022-11-12T09:35:46.662Z,99.3
2022-11-12T09:37:47.965Z,99.31
2022-11-12T09:39:49.591Z,99.3
2022-11-12T09:41:50.935Z,99.33
2022-11-12T09:46:06.709Z,99.32
2022-11-12T09:46:38.187Z,99.31
2022-11-12T09:48:39.341Z,99.31
2022-11-12T09:50:40.698Z,99.28
2022-11-12T09:52:42.057Z,99.28
2022-11-12T09:54:43.815Z,99.27
2022-11-12T09:56:45.672Z,99.26
2022-11-12T09:58:47.291Z,99.26
2022-11-12T10:00:48.780Z,99.23
2022-11-12T10:02:49.827Z,99.22
2022-11-12T10:04:51.441Z,99.25
2022-11-12T10:06:52.710Z,99.28
2022-11-12T10:08:54.081Z,99.28
2022-11-12T10:10:55.798Z,99.23
2022-11-12T10:12:57.228Z,99.25
2022-11-12T10:14:58.917Z,99.25
2022-11-12T10:17:00.082Z,99.23
2022-11-12T10:19:01.565Z,99.22
2022-11-12T10:21:02.994Z,99.18
2022-11-12T10:23:04.475Z,99.19
2022-11-12T10:25:06.261Z,99.15
2022-11-12T10:29:09.525Z,99.12
2022-11-12T10:31:11.113Z,99.17
2022-11-12T10:33:12.534Z,99.17
2022-11-12T10:35:14.271Z,99.22
2022-11-12T10:39:16.767Z,99.09
2022-11-12T10:41:18.107Z,99.07
2022-11-12T10:43:19.534Z,98.99
2022-11-12T10:45:20.922Z,99.01
2022-11-12T10:47:22.668Z,99.06
2022-11-12T10:49:24.273Z,99.07
2022-11-12T10:51:26.039Z,98.95
2022-11-12T10:53:27.255Z,98.92
2022-11-12T10:55:29.376Z,98.85
2022-11-12T10:57:31.123Z,98.78
2022-11-12T10:59:32.618Z,98.89
2022-11-12T11:01:35.626Z,98.91
2022-11-12T11:03:35.779Z,98.8
2022-11-12T11:05:37.233Z,98.69
2022-11-12T11:07:38.521Z,98.68
2022-11-12T11:11:41.002Z,98.48
2022-11-12T11:13:42.599Z,98.35
2022-11-12T11:15:44.338Z,98.03
2022-11-12T11:17:45.442Z,98.05
2022-11-12T11:21:47.925Z,97.56
2022-11-12T11:23:48.878Z,97.11
2022-11-12T11:25:50.563Z,97.11
2022-11-12T11:27:52.326Z,96.79
2022-11-12T11:29:53.773Z,96.27
2022-11-12T11:31:55.408Z,96.15
2022-11-12T11:33:56.591Z,95.97
2022-11-12T11:35:57.815Z,96.31
2022-11-12T11:37:58.795Z,95.8
2022-11-12T11:39:59.894Z,95.61
2022-11-12T11:42:01.377Z,96.21
2022-11-12T11:44:02.315Z,95.79
2022-11-12T11:46:03.948Z,95.57
2022-11-12T11:48:05.192Z,95.74
2022-11-12T11:50:06.462Z,94.04
2022-11-12T11:52:07.950Z,94.7
2022-11-12T11:54:09.707Z,94.24
2022-11-12T11:56:11.528Z,92.36
2022-11-12T11:58:12.457Z,93.8
2022-11-12T12:00:13.592Z,92.77
2022-11-12T12:04:16.523Z,94.52
2022-11-12T12:06:18.201Z,93.27
2022-11-12T12:08:19.271Z,91.7
2022-11-12T12:10:20.969Z,91.57
2022-11-12T12:12:22.622Z,91.06
2022-11-12T12:14:23.672Z,89.36
2022-11-12T12:16:25.404Z,92.03
2022-11-12T12:18:26.917Z,90.14
2022-11-12T12:20:28.317Z,87.7
2022-11-12T12:22:29.366Z,89.55
2022-11-12T12:24:30.386Z,89.39
2022-11-12T12:26:31.417Z,87.72
2022-11-12T12:28:32.462Z,85.89
2022-11-12T12:30:33.529Z,88.53
2022-11-12T12:32:35.359Z,89.15
2022-11-12T12:36:37.740Z,86.54
2022-11-12T12:38:38.607Z,86.09
2022-11-12T12:40:40.351Z,87.21
2022-11-12T12:42:41.545Z,86.95
2022-11-12T12:46:43.666Z,86.33
2022-11-12T12:48:44.586Z,85.46
2022-11-12T12:52:47.979Z,86.3
2022-11-12T12:54:49.799Z,86.7
2022-11-12T12:56:50.884Z,86
2022-11-12T12:58:52.365Z,87.02
2022-11-12T13:02:55.544Z,87.02
2022-11-12T13:04:56.761Z,86.53
2022-11-12T13:06:58.534Z,87.08
2022-11-12T13:08:59.426Z,86.67
2022-11-12T13:11:00.595Z,85.89
2022-11-12T13:13:01.791Z,85.97
2022-11-12T13:15:03.755Z,86.12
2022-11-12T13:17:05.334Z,86.12
2022-11-12T13:19:06.960Z,86.7
2022-11-12T13:21:08.193Z,86
2022-11-12T13:23:09.258Z,85.77
2022-11-12T13:25:10.990Z,85.93
2022-11-12T13:27:12.099Z,86.05
2022-11-12T13:29:13.504Z,86.66
2022-11-12T13:31:14.628Z,87.26
2022-11-12T13:33:15.576Z,87.34
2022-11-12T13:35:17.372Z,87.98
2022-11-12T13:37:18.297Z,88.44
2022-11-12T13:39:19.976Z,89.51
2022-11-12T13:41:21.335Z,90.11
2022-11-12T13:45:23.833Z,90.27
2022-11-12T13:47:25.418Z,89.63
2022-11-12T13:49:27.291Z,89.6
2022-11-12T13:51:28.437Z,89.8
2022-11-12T13:53:29.339Z,89.28
2022-11-12T13:55:30.788Z,90.52
2022-11-12T13:57:32.452Z,89.97
2022-11-12T13:59:34.343Z,90.65
2022-11-12T14:01:35.929Z,90.79
2022-11-12T14:03:37.256Z,90.86
2022-11-12T14:05:38.319Z,90.55
2022-11-12T14:07:39.278Z,90.7
2022-11-12T14:09:41.122Z,91.67
2022-11-12T14:11:42.430Z,91.36
2022-11-12T14:13:43.983Z,91.44
2022-11-12T14:17:46.968Z,91.6
2022-11-12T14:19:48.754Z,91.81
2022-11-12T14:21:50.144Z,91.7
2022-11-12T14:23:51.452Z,91.83
2022-11-12T14:27:54.451Z,92.49
2022-11-12T14:29:56.299Z,92.53
2022-11-12T14:31:58.068Z,92.95
2022-11-12T14:33:59.603Z,93.06
2022-11-12T14:36:01.346Z,93.07
2022-11-12T14:38:02.514Z,93.19
2022-11-12T14:40:04.209Z,93.41
2022-11-12T14:42:05.603Z,93.59
2022-11-12T14:44:12.947Z,93.6
2022-11-12T14:46:08.888Z,93.85
2022-11-12T14:48:10.367Z,93.92
2022-11-12T14:50:12.288Z,93.94
2022-11-12T14:52:14.008Z,94.07
2022-11-12T14:54:15.022Z,94.19
2022-11-12T14:56:16.818Z,94.41
2022-11-12T15:00:18.822Z,94.61
2022-11-12T15:02:32.467Z,94.76
2022-11-12T15:04:21.447Z,94.9
2022-11-12T15:06:22.684Z,95.03
2022-11-12T15:10:25.772Z,95.23
2022-11-12T15:12:26.743Z,95.33
2022-11-12T15:14:28.670Z,95.41
2022-11-12T15:16:30.364Z,95.51
2022-11-12T15:18:31.974Z,95.42
2022-11-12T15:20:33.215Z,95.49
2022-11-12T15:22:34.787Z,95.65
2022-11-12T15:24:35.990Z,95.9
2022-11-12T15:26:37.694Z,95.94
2022-11-12T15:28:38.893Z,95.98
2022-11-12T15:30:40.201Z,96.05
2022-11-12T15:32:42.039Z,96.25
2022-11-12T15:34:43.559Z,96.4
2022-11-12T15:36:45.268Z,96.51
2022-11-12T15:38:47.088Z,96.64
2022-11-12T15:40:50.932Z,96.8
2022-11-12T15:42:50.615Z,96.94
2022-11-12T15:44:52.126Z,97.03
2022-11-12T15:46:53.803Z,97.26
2022-11-12T15:48:56.099Z,97.43
2022-11-12T15:50:57.443Z,97.6
2022-11-12T15:52:58.878Z,97.68
2022-11-12T15:55:00.679Z,97.84
2022-11-12T15:59:11.441Z,98
2022-11-12T16:01:05.245Z,98.04
2022-11-12T16:03:06.519Z,98.09
2022-11-12T16:05:07.741Z,98.15
2022-11-12T16:07:08.858Z,98.17
2022-11-12T16:09:10.634Z,98.21
2022-11-12T16:11:11.931Z,98.22
2022-11-12T16:13:13.268Z,98.25
2022-11-12T16:15:14.608Z,98.26
2022-11-12T16:17:16.203Z,98.32
2022-11-12T16:19:17.845Z,98.35
2022-11-12T16:21:20.921Z,98.35
2022-11-12T16:23:21.110Z,98.38
2022-11-12T16:25:22.504Z,98.41
2022-11-12T16:27:24.229Z,98.43
2022-11-12T16:29:26.013Z,98.46
2022-11-12T16:31:27.657Z,98.49
2022-11-12T16:34:12.745Z,98.52
2022-11-12T16:36:14.462Z,98.5
2022-11-12T16:38:15.508Z,98.53
2022-11-12T16:40:16.844Z,98.56
2022-11-12T16:42:18.553Z,98.53
2022-11-12T16:46:20.851Z,98.55
2022-11-12T16:48:22.070Z,98.56
2022-11-12T16:50:23.822Z,98.56
2022-11-12T16:52:25.233Z,98.59
2022-11-12T16:54:26.445Z,98.57
2022-11-12T16:56:28.160Z,98.59
2022-11-12T16:58:29.347Z,98.61
2022-11-12T17:00:30.642Z,98.62
2022-11-12T17:02:32.064Z,98.62
2022-11-12T17:04:33.985Z,98.61
2022-11-12T17:06:35.819Z,98.65
2022-11-12T17:08:36.854Z,98.67
2022-11-12T17:10:38.539Z,98.64
2022-11-12T17:12:39.565Z,98.68
2022-11-12T17:14:40.899Z,98.67
2022-11-12T17:16:41.971Z,98.66
2022-11-12T17:18:43.408Z,98.67
2022-11-12T17:20:48.402Z,98.7
2022-11-12T17:22:45.617Z,98.7
2022-11-12T17:24:46.943Z,98.7
2022-11-12T17:28:53.998Z,98.72
2022-11-12T17:30:51.907Z,98.7
2022-11-12T17:32:53.404Z,98.73
2022-11-12T17:34:55.306Z,98.73
2022-11-12T17:36:56.908Z,98.7
2022-11-12T17:38:57.929Z,98.7
2022-11-12T17:40:59.137Z,98.69
2022-11-12T17:43:00.601Z,98.69
2022-11-12T17:45:02.262Z,98.68
2022-11-12T17:47:03.678Z,98.71
2022-11-12T17:49:05.605Z,98.73
2022-11-12T17:51:07.252Z,98.72
2022-11-12T17:53:08.717Z,98.71
2022-11-12T17:55:10.235Z,98.71
2022-11-12T17:57:11.648Z,98.7
2022-11-12T18:01:14.591Z,98.73
2022-11-12T18:03:16.220Z,98.74
2022-11-12T18:05:17.855Z,98.76
2022-11-12T18:07:19.705Z,98.76
2022-11-12T18:09:20.570Z,98.79
2022-11-12T18:11:21.637Z,98.79
2022-11-12T18:13:22.733Z,98.78
2022-11-12T18:15:23.982Z,98.77
2022-11-12T18:17:25.426Z,98.74
2022-11-12T18:19:26.833Z,98.77
2022-11-12T18:21:28.174Z,98.76
2022-11-12T18:23:30.277Z,98.76
2022-11-12T18:25:31.395Z,98.77
2022-11-12T18:27:32.812Z,98.78
2022-11-12T18:29:34.787Z,98.79
2022-11-12T18:33:38.241Z,98.81
2022-11-12T18:35:39.273Z,98.8
2022-11-12T18:37:40.345Z,98.81
2022-11-12T18:39:41.674Z,98.83
2022-11-12T18:43:44.414Z,98.83
2022-11-12T18:45:45.962Z,98.87
2022-11-12T18:47:47.373Z,98.89
2022-11-12T18:49:48.382Z,98.9
2022-11-12T18:51:50.226Z,98.88
2022-11-12T18:53:52.116Z,98.89
2022-11-12T18:55:53.531Z,98.89
2022-11-12T18:57:55.335Z,98.9
2022-11-12T18:59:56.732Z,98.95
2022-11-12T19:01:58.263Z,98.95
2022-11-12T19:03:59.420Z,98.95
2022-11-12T19:06:00.750Z,98.96
2022-11-12T19:08:02.220Z,98.97
2022-11-12T19:10:03.248Z,99
2022-11-12T19:12:05.081Z,99
2022-11-12T19:14:06.100Z,99.01
2022-11-12T19:16:07.106Z,99
2022-11-12T19:18:08.603Z,99.02
2022-11-12T19:20:10.051Z,99.01
2022-11-12T19:22:11.051Z,99.02
2022-11-12T19:24:12.968Z,99.02
2022-11-12T19:26:14.633Z,99.03
2022-11-12T19:28:15.747Z,99.04
2022-11-12T19:32:19.048Z,99.02
2022-11-12T19:34:20.873Z,99.04
2022-11-12T19:36:22.424Z,99.05
2022-11-12T19:38:23.481Z,99.04
2022-11-12T19:42:26.380Z,99.03
2022-11-12T19:44:27.795Z,99.04
2022-11-12T19:46:29.329Z,99.05
2022-11-12T19:48:30.854Z,99.05
2022-11-12T19:50:41.762Z,99.07
2022-11-12T19:52:33.086Z,99.07
2022-11-12T19:54:34.666Z,99.04
2022-11-12T19:58:37.782Z,99.02
2022-11-12T20:00:39.660Z,99.03
2022-11-12T20:02:41.497Z,99.02
2022-11-12T20:04:43.075Z,99.02
2022-11-12T20:06:44.436Z,99.03
2022-11-12T20:08:46.036Z,99.03
2022-11-12T20:10:47.946Z,99.01
2022-11-12T20:12:49.102Z,99.03
2022-11-12T20:14:50.877Z,99.04
2022-11-12T20:16:51.987Z,99.07
2022-11-12T20:18:53.093Z,99.05
2022-11-12T20:20:54.542Z,99.03
2022-11-12T20:24:57.023Z,99.04
2022-11-12T20:26:58.742Z,99.04
2022-11-12T20:29:00.269Z,99.04
2022-11-12T20:31:01.422Z,99.04
2022-11-12T20:33:02.569Z,99.05
2022-11-12T20:35:07.019Z,99.06
2022-11-12T20:37:04.873Z,99.06
2022-11-12T20:39:06.218Z,99.08
2022-11-12T20:41:07.853Z,99.05
2022-11-12T20:43:09.724Z,99.07
2022-11-12T20:45:10.730Z,99.08
2022-11-12T20:47:12.291Z,99.09
2022-11-12T20:49:14.221Z,99.11
2022-11-12T20:51:23.514Z,99.11
2022-11-12T20:53:17.106Z,99.1
2022-11-12T20:55:19.047Z,99.1
2022-11-12T20:57:20.063Z,99.08
2022-11-12T20:59:21.906Z,99.04
2022-11-12T21:01:23.661Z,99.05
2022-11-12T21:03:24.784Z,99.06
2022-11-12T21:07:27.420Z,99.04
2022-11-12T21:09:29.317Z,99.04
2022-11-12T21:11:30.416Z,99.05
2022-11-12T21:13:32.314Z,99.06
2022-11-12T21:15:33.656Z,99.07
2022-11-12T21:17:35.302Z,99.07
2022-11-12T21:19:36.503Z,99.08
2022-11-12T21:21:38.451Z,99.08
2022-11-12T21:23:39.737Z,99.11
2022-11-12T21:25:41.471Z,99.11
2022-11-12T21:27:43.158Z,99.11
2022-11-12T21:29:44.875Z,99.13
2022-11-12T21:31:45.957Z,99.14
2022-11-12T21:33:47.556Z,99.13
2022-11-12T21:35:48.818Z,99.17
2022-11-12T21:39:52.106Z,99.15
2022-11-12T21:41:53.442Z,99.14
2022-11-12T21:43:55.102Z,99.14
2022-11-12T21:45:56.574Z,99.17
2022-11-12T21:49:59.319Z,99.15
2022-11-12T21:52:00.776Z,99.17
2022-11-12T21:54:02.242Z,99.17
2022-11-12T21:56:03.641Z,99.16
2022-11-12T21:58:04.782Z,99.18
2022-11-12T22:00:27.012Z,99.17
2022-11-12T22:02:07.733Z,99.18
2022-11-12T22:04:10.105Z,99.17
2022-11-12T22:06:10.761Z,99.18
2022-11-12T22:08:12.598Z,99.18
2022-11-12T22:10:13.976Z,99.2
2022-11-12T22:12:15.893Z,99.2
2022-11-12T22:14:17.303Z,99.18
2022-11-12T22:16:18.356Z,99.18
2022-11-12T22:18:20.160Z,99.18
2022-11-12T22:20:21.802Z,99.18
2022-11-12T22:22:23.321Z,99.17
2022-11-12T22:24:25.098Z,99.18
2022-11-12T22:26:26.990Z,99.19
2022-11-12T22:28:28.502Z,99.2
2022-11-12T22:32:31.087Z,99.2
2022-11-12T22:34:32.380Z,99.22
2022-11-12T22:38:35.300Z,99.2
2022-11-12T22:40:36.845Z,99.21
2022-11-12T22:42:38.803Z,99.22
2022-11-12T22:44:40.751Z,99.21
2022-11-12T22:46:41.821Z,99.21
2022-11-12T22:48:43.453Z,99.24
2022-11-12T22:50:44.726Z,99.22
2022-11-12T22:52:49.928Z,99.24
2022-11-12T22:54:47.667Z,99.24
2022-11-12T22:56:48.878Z,99.27
2022-11-12T22:58:50.293Z,99.22
2022-11-12T23:00:51.434Z,99.25
2022-11-12T23:02:52.470Z,99.29
2022-11-12T23:04:54.087Z,99.25
2022-11-12T23:06:55.193Z,99.26
2022-11-12T23:08:56.374Z,99.27
2022-11-12T23:10:57.600Z,99.26
2022-11-12T23:12:58.619Z,99.28
2022-11-12T23:15:00.240Z,99.27
2022-11-12T23:17:01.685Z,99.29
2022-11-12T23:19:47.296Z,99.24
2022-11-12T23:21:48.961Z,99.24
2022-11-12T23:25:51.917Z,99.25
2022-11-12T23:27:53.418Z,99.27
2022-11-12T23:29:54.983Z,99.26
2022-11-12T23:31:56.123Z,99.24
2022-11-12T23:33:57.586Z,99.26
2022-11-12T23:35:59.115Z,99.25
2022-11-12T23:38:00.744Z,99.25
2022-11-12T23:40:01.833Z,99.26
2022-11-12T23:42:03.601Z,99.25
2022-11-12T23:44:04.931Z,99.24
2022-11-12T23:46:05.938Z,99.23
2022-11-12T23:48:07.645Z,99.23
2022-11-12T23:50:08.791Z,99.24
2022-11-12T23:52:10.552Z,99.23
2022-11-12T23:54:11.715Z,99.25
2022-11-12T23:58:14.870Z,99.22
